Etusivu
METAR-TAF:

METAR-TAF

Lentoasemat :

Yaoundé, Kamerun

Leveyspiiri: 03-50N, Pituuspiiri: 011-31E, korkeus merenpinnasta: 751 m

Tämänhetkinen sää

Tämä raportti tehtiin 1 tunti ja 10 minuuttia sitten, kello 04.00 UTC
Lämpötila 21°C
Kosteus 100%
Ilmanpaine 1018 hPa
Näkyvyys: 6000 m
Hajanaisia pilviä 600 ft:n korkeudessa

METAR: FKYS 130400Z /////KT 6000 SCT006 21/21 Q1018 NOSIG

Aika: 06:10 (05:10 UTC)

Sääennuste

Tämä raportti tehtiin 6 tuntia ja 10 minuuttia sitten, kello 23.00 UTC
Ennuste voimassa 13. päivästä klo 00 UTC - 13. päivään klo 24 UTC
Tuuli 4 kn eri suunnista
Näkyvyys: 8000 m
Hajonneita pilviä 600 ft:n korkeudessa
Ajoittain
13. päivästä klo 00 UTC - 13. päivään klo 06 UTC
Näkyvyys: 3000 m
utua
Tulossa
13. päivästä klo 06 UTC - 13. päivään klo 10 UTC
Hajonneita pilviä 1600 ft:n korkeudessa

TAF: FKYS 122300Z 1300/1324 VRB04KT 8000 BKN006 TEMPO 1300/1306 3000 BR BECMG 1306/1310 BKN016

Säähavainnot ja -ennusteet yli 4000 lentoasemalta (METAR- ja TAF-raportit).

Käytössä olevat sääasemat on merkitty karttaan keltaisilla ja punaisilla pisteillä.

Aseta hiiri pisteen päälle nähdäksesi sääaseman nimen.

Klikkaa sitten nähdäksesi säähavainnot ja -ennusteet.

Kartan vaihtaminen: klikkaa mustalla rastilla varustettuja vihreitä pisteitä, niin voit zoomata sisään; viivalla varustettua vihreää pistettä, niin voit zoomata ulos tai vihreitä nuolia, niin pääset viereisille kartoille.


METAR-TAF: